Time;durP1;ratioP1;P1;durP2;ratioP2;P2;SDS_P1;SDS_P2;PMS_P1;PMS_P2;Temp;Humidity;BMP_temperature;BMP_pressure;BME280_temperature;BME280_humidity;BME280_pressure;Samples;Min_cycle;Max_cycle;Signal;HPM_P1;HPM_P2
2022/07/07 00:00:29;;;;;;;8.95;6.05;;;15.60;99.90;;;;;;5075240;28;20040;-74
2022/07/07 00:02:55;;;;;;;5.80;4.80;;;15.60;99.90;;;;;;5074035;28;20103;-75
2022/07/07 00:05:21;;;;;;;8.25;5.78;;;15.60;99.90;;;;;;5074177;28;20048;-75
2022/07/07 00:07:46;;;;;;;11.13;6.10;;;15.60;99.90;;;;;;5075438;28;20052;-75
2022/07/07 00:10:12;;;;;;;9.00;5.80;;;15.60;99.90;;;;;;5074192;28;20489;-75
2022/07/07 00:12:38;;;;;;;8.88;5.60;;;15.60;99.90;;;;;;5075300;28;20048;-75
2022/07/07 00:15:05;;;;;;;8.77;5.57;;;15.60;99.90;;;;;;5075269;28;20044;-76
2022/07/07 00:17:31;;;;;;;9.35;6.63;;;15.60;99.90;;;;;;5091146;28;20167;-76
2022/07/07 00:19:57;;;;;;;10.65;7.45;;;15.70;99.90;;;;;;5075278;28;20135;-75
2022/07/07 00:22:22;;;;;;;8.15;6.38;;;15.70;99.90;;;;;;5073443;28;20052;-75
2022/07/07 00:24:48;;;;;;;10.18;7.05;;;15.70;99.90;;;;;;5074893;28;20044;-77
2022/07/07 00:27:14;;;;;;;10.55;6.97;;;15.70;99.90;;;;;;5074468;28;20040;-76
2022/07/07 00:29:39;;;;;;;9.98;6.13;;;15.80;99.90;;;;;;5057687;28;20431;-75
2022/07/07 00:32:05;;;;;;;10.93;6.55;;;15.70;99.90;;;;;;5074486;28;20036;-76
2022/07/07 00:34:31;;;;;;;10.32;6.20;;;15.70;99.90;;;;;;5074105;28;20055;-76
2022/07/07 00:36:57;;;;;;;10.65;6.47;;;15.70;99.90;;;;;;5074157;28;20052;-75
2022/07/07 00:39:22;;;;;;;10.27;7.18;;;15.70;99.90;;;;;;5074560;28;20044;-76
2022/07/07 00:41:48;;;;;;;9.02;6.95;;;15.70;99.90;;;;;;5073267;28;20045;-75
2022/07/07 00:44:14;;;;;;;10.05;6.90;;;15.70;99.90;;;;;;5074727;28;20442;-76
2022/07/07 00:46:46;;;;;;;11.32;6.50;;;15.70;99.90;;;;;;5073857;28;20421;-76
2022/07/07 00:49:12;;;;;;;10.15;6.90;;;15.70;99.90;;;;;;5074139;28;20104;-75
2022/07/07 00:51:40;;;;;;;11.60;7.05;;;15.80;99.90;;;;;;5074107;28;20447;-75
2022/07/07 00:54:07;;;;;;;11.35;6.63;;;15.80;99.90;;;;;;5073078;28;20062;-76
2022/07/07 00:56:34;;;;;;;10.10;6.93;;;15.80;99.90;;;;;;5074190;28;20045;-76
2022/07/07 00:59:02;;;;;;;9.18;7.22;;;15.80;99.90;;;;;;5072655;28;20106;-76
2022/07/07 01:01:29;;;;;;;10.82;6.90;;;15.80;99.90;;;;;;5073232;28;20102;-76
2022/07/07 01:03:55;;;;;;;9.48;6.93;;;15.80;99.90;;;;;;5072779;28;20537;-77
2022/07/07 01:06:22;;;;;;;10.85;7.60;;;15.90;99.90;;;;;;5073681;28;20120;-76
2022/07/07 01:08:48;;;;;;;11.13;6.75;;;15.90;99.90;;;;;;5073552;28;20056;-75
2022/07/07 01:11:13;;;;;;;8.68;6.78;;;15.90;99.90;;;;;;5072605;28;20041;-75
2022/07/07 01:13:39;;;;;;;8.32;6.68;;;15.90;99.90;;;;;;5073661;28;20049;-74
2022/07/07 01:16:05;;;;;;;10.27;7.20;;;15.90;99.90;;;;;;5073672;28;20048;-76
2022/07/07 01:18:31;;;;;;;10.77;6.97;;;15.90;99.90;;;;;;5072436;28;20119;-75
2022/07/07 01:21:00;;;;;;;11.52;7.50;;;15.90;99.90;;;;;;5073553;28;20055;-76
2022/07/07 01:23:25;;;;;;;10.82;7.93;;;15.90;99.90;;;;;;5072593;28;20056;-76
2022/07/07 01:25:51;;;;;;;10.20;7.20;;;15.90;99.90;;;;;;5072815;28;20370;-75
2022/07/07 01:28:17;;;;;;;10.00;6.32;;;15.90;99.90;;;;;;5073445;28;20488;-74
2022/07/07 01:30:42;;;;;;;10.48;7.10;;;15.90;99.90;;;;;;5072530;28;20079;-76
2022/07/07 01:33:08;;;;;;;12.52;7.00;;;15.90;99.90;;;;;;5072344;28;20041;-77
2022/07/07 01:35:34;;;;;;;10.88;7.15;;;15.90;99.90;;;;;;5073323;28;20048;-76
2022/07/07 01:38:00;;;;;;;11.10;7.38;;;15.90;99.90;;;;;;5073877;28;20385;-76
2022/07/07 01:40:26;;;;;;;10.55;7.32;;;15.90;99.90;;;;;;5072146;28;20095;-75
2022/07/07 01:42:51;;;;;;;10.30;6.88;;;15.90;99.90;;;;;;5072639;28;20132;-76
2022/07/07 01:45:17;;;;;;;12.10;7.32;;;15.90;99.90;;;;;;5072568;28;20044;-76
2022/07/07 01:47:43;;;;;;;11.07;7.22;;;15.90;99.90;;;;;;5072084;28;20063;-76
2022/07/07 01:50:09;;;;;;;12.38;8.35;;;15.90;99.90;;;;;;5073256;28;20477;-75
2022/07/07 01:52:36;;;;;;;11.02;7.93;;;15.90;99.90;;;;;;5073789;28;20127;-76
2022/07/07 01:55:02;;;;;;;10.15;7.18;;;15.90;99.90;;;;;;5071959;28;20052;-76
2022/07/07 01:57:28;;;;;;;11.02;7.43;;;15.90;99.90;;;;;;5072480;28;20052;-76
2022/07/07 01:59:54;;;;;;;10.70;5.40;;;15.90;99.90;;;;;;5055272;28;20052;-77
2022/07/07 02:02:20;;;;;;;6.65;4.90;;;15.90;99.90;;;;;;5072139;28;20127;-76
2022/07/07 02:04:45;;;;;;;7.28;4.25;;;15.90;99.90;;;;;;5072944;28;20070;-76
2022/07/07 02:07:12;;;;;;;6.60;4.57;;;15.90;99.90;;;;;;5072978;28;20037;-75
2022/07/07 02:09:37;;;;;;;7.93;4.63;;;15.90;99.90;;;;;;5073327;28;20067;-76
2022/07/07 02:12:03;;;;;;;6.15;4.60;;;15.90;99.90;;;;;;5071960;28;20044;-76
2022/07/07 02:14:29;;;;;;;5.40;3.70;;;15.90;99.90;;;;;;5072006;28;20044;-77
2022/07/07 02:16:55;;;;;;;7.57;4.10;;;15.80;99.90;;;;;;5071799;28;20119;-76
2022/07/07 02:19:21;;;;;;;6.28;3.80;;;15.80;99.90;;;;;;5071967;28;20075;-76
2022/07/07 02:21:46;;;;;;;5.78;3.83;;;15.80;99.90;;;;;;5072858;28;20052;-76
2022/07/07 02:24:12;;;;;;;4.30;3.05;;;15.80;99.90;;;;;;5071732;28;20041;-76
2022/07/07 02:26:38;;;;;;;4.32;3.00;;;15.70;99.90;;;;;;5072541;28;20461;-76
2022/07/07 02:29:04;;;;;;;5.07;2.95;;;15.70;99.90;;;;;;5073304;28;20080;-76
2022/07/07 02:31:30;;;;;;;5.03;3.22;;;15.70;99.90;;;;;;5071606;28;20072;-76
2022/07/07 02:33:56;;;;;;;5.13;2.90;;;15.70;99.90;;;;;;5071751;28;20048;-76
2022/07/07 02:36:21;;;;;;;6.00;3.03;;;15.60;99.90;;;;;;5072105;28;20071;-77
2022/07/07 02:38:49;;;;;;;5.15;3.00;;;15.60;99.90;;;;;;5071531;28;20123;-75
2022/07/07 02:41:15;;;;;;;3.83;2.38;;;15.60;99.90;;;;;;5071778;28;20051;-76
2022/07/07 02:43:40;;;;;;;3.85;2.15;;;15.60;99.90;;;;;;5073226;28;20478;-77
2022/07/07 02:46:06;;;;;;;3.20;2.38;;;15.60;99.90;;;;;;5073110;28;20424;-77
2022/07/07 02:48:32;;;;;;;2.90;1.90;;;15.50;99.90;;;;;;5058561;28;20049;-76
2022/07/07 02:50:58;;;;;;;3.42;2.10;;;15.50;99.90;;;;;;5076080;28;20095;-76
2022/07/07 02:53:24;;;;;;;3.85;2.28;;;15.50;99.90;;;;;;5075619;28;20051;-76
2022/07/07 02:55:49;;;;;;;3.47;2.30;;;15.50;99.90;;;;;;5076225;28;20135;-76
2022/07/07 02:58:19;;;;;;;4.20;2.53;;;15.50;99.90;;;;;;5076248;28;20048;-76
2022/07/07 03:00:49;;;;;;;4.20;2.42;;;15.50;99.90;;;;;;5076231;28;20087;-77
2022/07/07 03:03:15;;;;;;;3.63;2.30;;;15.50;99.90;;;;;;5076200;28;20051;-76
2022/07/07 03:05:41;;;;;;;4.90;2.30;;;15.50;99.90;;;;;;5075009;28;20080;-75
2022/07/07 03:08:07;;;;;;;3.95;2.33;;;15.50;99.90;;;;;;5076048;28;20545;-75
2022/07/07 03:10:32;;;;;;;4.30;2.33;;;15.50;99.90;;;;;;5076825;28;20052;-76
2022/07/07 03:12:58;;;;;;;3.35;2.25;;;15.50;99.90;;;;;;5074994;28;20052;-77
2022/07/07 03:15:24;;;;;;;5.53;2.30;;;15.50;99.90;;;;;;5058232;28;20057;-76
2022/07/07 03:17:51;;;;;;;5.82;2.42;;;15.50;99.90;;;;;;5074942;28;20041;-76
2022/07/07 03:20:18;;;;;;;4.50;2.40;;;15.60;99.90;;;;;;5075685;28;20044;-77
2022/07/07 03:22:44;;;;;;;3.00;2.35;;;15.60;99.90;;;;;;5075081;28;20055;-75
2022/07/07 03:25:10;;;;;;;5.38;2.25;;;15.50;99.90;;;;;;5058782;28;20044;-75
2022/07/07 03:27:36;;;;;;;3.13;2.22;;;15.60;99.90;;;;;;5073915;28;20517;-77
2022/07/07 03:30:04;;;;;;;3.83;2.15;;;15.60;99.90;;;;;;5058561;28;20086;-78
2022/07/07 03:32:30;;;;;;;3.20;2.20;;;15.60;99.90;;;;;;5074217;28;20400;-78
2022/07/07 03:34:56;;;;;;;3.60;2.20;;;15.60;99.90;;;;;;5075394;28;20048;-76
2022/07/07 03:37:22;;;;;;;3.63;2.22;;;15.60;99.90;;;;;;5075521;28;20039;-75
2022/07/07 03:39:48;;;;;;;3.08;2.30;;;15.60;99.90;;;;;;5075533;28;20084;-76
2022/07/07 03:42:13;;;;;;;3.53;2.33;;;15.60;99.90;;;;;;5076037;28;20112;-76
2022/07/07 03:44:39;;;;;;;5.10;2.38;;;15.60;99.90;;;;;;5075464;28;20049;-76
2022/07/07 03:47:05;;;;;;;5.72;2.05;;;15.60;99.90;;;;;;5075321;28;20087;-77
2022/07/07 03:49:31;;;;;;;5.93;2.65;;;15.60;99.90;;;;;;5074184;28;20059;-76
2022/07/07 03:51:57;;;;;;;3.15;1.92;;;15.60;99.90;;;;;;5074205;28;20051;-77
2022/07/07 03:54:23;;;;;;;4.10;1.98;;;15.60;99.90;;;;;;5075248;28;20127;-76
2022/07/07 03:56:49;;;;;;;5.15;2.08;;;15.60;99.90;;;;;;5075480;28;20131;-76
2022/07/07 03:59:14;;;;;;;4.60;2.00;;;15.60;99.90;;;;;;5075182;28;20461;-76
2022/07/07 04:01:44;;;;;;;4.38;2.10;;;15.50;99.90;;;;;;5075023;28;20051;-76
2022/07/07 04:04:11;;;;;;;5.03;1.70;;;15.50;99.90;;;;;;5074017;28;20056;-76
2022/07/07 04:06:37;;;;;;;4.20;1.83;;;15.50;99.90;;;;;;5074928;28;20055;-77
2022/07/07 04:09:03;;;;;;;5.70;2.40;;;15.50;99.90;;;;;;5073982;28;20041;-75
2022/07/07 04:11:28;;;;;;;5.60;2.10;;;15.60;99.90;;;;;;5074678;28;20044;-76
2022/07/07 04:13:54;;;;;;;3.90;2.08;;;15.50;99.90;;;;;;5074896;28;20048;-76
2022/07/07 04:16:20;;;;;;;3.40;2.10;;;15.50;99.90;;;;;;5074853;28;20058;-75
2022/07/07 04:18:45;;;;;;;5.07;2.20;;;15.50;99.90;;;;;;5073745;28;20119;-76
2022/07/07 04:21:11;;;;;;;4.15;1.80;;;15.50;99.90;;;;;;5075228;28;20089;-76
2022/07/07 04:23:37;;;;;;;4.03;2.00;;;15.40;99.90;;;;;;5074597;28;20048;-74
2022/07/07 04:26:02;;;;;;;5.10;1.90;;;15.40;99.90;;;;;;5073631;28;20052;-76
2022/07/07 04:28:29;;;;;;;3.75;1.80;;;15.40;99.90;;;;;;5073316;28;20492;-74
2022/07/07 04:30:55;;;;;;;5.10;1.95;;;15.40;99.90;;;;;;5073192;28;20055;-76
2022/07/07 04:33:21;;;;;;;3.90;1.13;;;15.40;99.90;;;;;;5075255;28;20044;-75
2022/07/07 04:35:47;;;;;;;3.33;1.20;;;15.40;99.90;;;;;;5073351;28;20481;-75
2022/07/07 04:38:13;;;;;;;2.25;1.13;;;15.30;99.90;;;;;;5074422;28;20040;-77
2022/07/07 04:40:39;;;;;;;2.88;1.30;;;15.30;99.90;;;;;;5073184;28;20044;-76
2022/07/07 04:43:05;;;;;;;2.95;1.40;;;15.30;99.90;;;;;;5074333;28;20494;-75
2022/07/07 04:45:31;;;;;;;5.40;1.20;;;15.30;99.90;;;;;;5073312;28;20047;-75
2022/07/07 04:47:57;;;;;;;3.95;1.08;;;15.30;99.90;;;;;;5074110;28;20090;-75
2022/07/07 04:50:23;;;;;;;2.22;0.93;;;15.30;99.90;;;;;;5073981;28;20041;-74
2022/07/07 04:52:48;;;;;;;2.08;0.73;;;15.30;99.90;;;;;;5072934;28;20055;-76
2022/07/07 04:55:14;;;;;;;1.92;0.68;;;15.20;99.90;;;;;;5072894;28;20169;-74
2022/07/07 04:57:40;;;;;;;3.17;1.00;;;15.20;99.90;;;;;;5074643;28;20369;-75
2022/07/07 05:00:06;;;;;;;3.35;0.90;;;15.20;99.90;;;;;;5072709;28;20040;-73
2022/07/07 05:02:32;;;;;;;2.65;0.95;;;15.20;99.90;;;;;;5072684;28;20469;-73
2022/07/07 05:04:58;;;;;;;3.13;0.80;;;15.20;99.90;;;;;;5073828;28;20044;-74
2022/07/07 05:07:23;;;;;;;5.15;1.10;;;15.20;99.90;;;;;;5073777;28;20070;-77
2022/07/07 05:09:49;;;;;;;2.47;0.82;;;15.10;99.90;;;;;;5073290;28;20045;-75
2022/07/07 05:12:15;;;;;;;5.50;1.35;;;15.20;99.90;;;;;;5074191;28;20040;-74
2022/07/07 05:14:41;;;;;;;4.28;1.00;;;15.20;99.90;;;;;;5072764;28;20037;-74
2022/07/07 05:17:07;;;;;;;4.82;1.00;;;15.20;99.90;;;;;;5072482;28;20055;-73
2022/07/07 05:19:32;;;;;;;4.47;1.02;;;15.20;99.90;;;;;;5073444;28;20440;-76
2022/07/07 05:21:58;;;;;;;2.58;0.90;;;15.20;99.90;;;;;;5073542;28;20045;-75
2022/07/07 05:24:24;;;;;;;3.60;1.10;;;15.20;99.90;;;;;;5073533;28;20044;-76
2022/07/07 05:26:50;;;;;;;1.98;0.80;;;15.30;99.90;;;;;;5072491;28;20553;-76
2022/07/07 05:29:15;;;;;;;3.83;1.13;;;15.30;99.90;;;;;;5072800;28;20048;-75
2022/07/07 05:31:41;;;;;;;3.58;1.45;;;15.40;99.90;;;;;;5073464;28;20087;-67
2022/07/07 05:34:07;;;;;;;4.80;1.38;;;15.40;99.90;;;;;;5073418;28;20473;-69
2022/07/07 05:36:33;;;;;;;3.67;1.13;;;15.50;99.90;;;;;;5073424;28;20098;-67
2022/07/07 05:38:59;;;;;;;3.63;1.15;;;15.50;99.90;;;;;;5073374;28;20052;-67
2022/07/07 05:41:26;;;;;;;3.63;0.88;;;15.50;99.90;;;;;;5072807;28;20084;-71
2022/07/07 05:43:52;;;;;;;4.47;0.80;;;15.50;99.90;;;;;;5073293;28;20052;-68
2022/07/07 05:46:17;;;;;;;3.70;1.08;;;15.50;99.90;;;;;;5073516;28;20462;-67
2022/07/07 05:48:43;;;;;;;4.28;1.00;;;15.40;99.90;;;;;;5071957;28;20461;-68
2022/07/07 05:51:09;;;;;;;3.90;1.10;;;15.40;99.90;;;;;;5073170;28;20067;-68
2022/07/07 05:53:36;;;;;;;3.72;0.88;;;15.40;99.90;;;;;;5072936;28;20053;-67
2022/07/07 05:56:02;;;;;;;4.40;0.88;;;15.40;99.90;;;;;;5072594;28;20532;-67
2022/07/07 05:58:28;;;;;;;5.00;1.30;;;15.40;99.90;;;;;;5073136;28;20108;-67
2022/07/07 06:00:54;;;;;;;3.15;1.15;;;15.50;99.90;;;;;;5073173;28;20067;-67
2022/07/07 06:03:20;;;;;;;4.60;1.58;;;15.50;99.90;;;;;;5073146;28;20044;-67
2022/07/07 06:05:46;;;;;;;6.70;1.23;;;15.60;99.90;;;;;;5073042;28;20136;-67
2022/07/07 06:08:11;;;;;;;3.92;1.00;;;15.70;99.90;;;;;;5072973;28;20040;-67
2022/07/07 06:10:37;;;;;;;3.72;1.10;;;15.70;99.90;;;;;;5073048;28;20049;-67
2022/07/07 06:13:03;;;;;;;3.13;1.08;;;15.60;99.90;;;;;;5073054;28;20098;-67
2022/07/07 06:15:33;;;;;;;4.78;0.98;;;15.70;99.90;;;;;;5071855;28;20044;-67
2022/07/07 06:18:05;;;;;;;4.07;1.02;;;15.70;99.90;;;;;;5072896;28;20084;-67
2022/07/07 06:20:31;;;;;;;3.20;1.23;;;15.70;99.90;;;;;;5075352;28;20056;-67
2022/07/07 06:22:57;;;;;;;4.53;1.00;;;15.70;99.90;;;;;;5076955;28;20052;-67
2022/07/07 06:25:26;;;;;;;4.45;1.15;;;15.60;99.90;;;;;;5076706;28;20060;-67
2022/07/07 06:27:52;;;;;;;6.55;1.00;;;15.70;99.90;;;;;;5077246;28;20044;-67
2022/07/07 06:30:18;;;;;;;4.68;1.00;;;15.70;99.90;;;;;;5076977;28;20052;-68
2022/07/07 06:32:44;;;;;;;4.43;1.30;;;15.70;99.90;;;;;;5076645;28;20113;-67
2022/07/07 06:35:10;;;;;;;2.20;0.90;;;15.70;99.90;;;;;;5077213;28;20041;-67
2022/07/07 06:37:35;;;;;;;4.43;1.10;;;15.70;99.90;;;;;;5076385;28;20041;-67
2022/07/07 06:40:01;;;;;;;4.47;1.17;;;15.60;99.90;;;;;;5077240;28;20485;-66
2022/07/07 06:42:27;;;;;;;3.70;0.95;;;15.60;99.90;;;;;;5076760;28;20139;-67
2022/07/07 06:44:53;;;;;;;3.25;1.20;;;15.60;99.90;;;;;;5076494;28;20041;-67
2022/07/07 06:47:18;;;;;;;3.00;1.20;;;15.60;99.90;;;;;;5076471;28;20048;-67
2022/07/07 06:49:44;;;;;;;4.05;1.20;;;15.70;99.90;;;;;;5076101;28;20369;-67
2022/07/07 06:52:10;;;;;;;4.35;1.40;;;15.70;99.90;;;;;;5075401;28;20059;-67
2022/07/07 06:54:38;;;;;;;4.22;1.30;;;15.80;99.90;;;;;;5076390;28;20048;-67
2022/07/07 06:57:05;;;;;;;4.50;1.35;;;15.90;99.90;;;;;;5077298;28;20057;-67
2022/07/07 06:59:31;;;;;;;6.03;1.45;;;16.00;99.90;;;;;;5076339;28;20127;-67
2022/07/07 07:01:56;;;;;;;4.43;1.20;;;16.10;99.90;;;;;;5075054;28;20052;-67
2022/07/07 07:04:22;;;;;;;4.78;1.20;;;16.20;99.90;;;;;;5076115;28;20041;-67
2022/07/07 07:06:48;;;;;;;5.22;1.10;;;16.30;99.90;;;;;;5076090;28;20040;-67
2022/07/07 07:09:14;;;;;;;4.15;1.10;;;16.40;99.90;;;;;;5075711;28;20128;-67
2022/07/07 07:11:40;;;;;;;4.13;1.08;;;16.60;99.90;;;;;;5075133;28;20041;-67
2022/07/07 07:14:06;;;;;;;2.75;0.93;;;16.70;99.90;;;;;;5076484;28;20457;-67
2022/07/07 07:16:31;;;;;;;5.85;1.55;;;16.60;99.90;;;;;;5076234;28;20048;-67
2022/07/07 07:18:57;;;;;;;2.63;0.90;;;16.60;99.90;;;;;;5075921;28;20036;-68
2022/07/07 07:21:23;;;;;;;3.05;0.85;;;16.40;99.90;;;;;;5076116;28;20052;-67
2022/07/07 07:23:48;;;;;;;4.13;0.95;;;16.30;99.90;;;;;;5076428;28;20049;-67
2022/07/07 07:26:15;;;;;;;4.88;1.05;;;16.20;99.90;;;;;;5075486;28;20135;-67
2022/07/07 07:28:40;;;;;;;5.95;1.38;;;16.30;99.90;;;;;;5074390;28;20045;-67
2022/07/07 07:31:06;;;;;;;3.53;1.17;;;16.40;99.90;;;;;;5075014;28;20053;-67
2022/07/07 07:33:32;;;;;;;3.72;0.93;;;16.50;99.90;;;;;;5075288;28;20505;-67
2022/07/07 07:35:58;;;;;;;2.58;1.00;;;16.70;99.90;;;;;;5075488;28;20098;-67
2022/07/07 07:38:24;;;;;;;3.20;1.17;;;16.80;99.90;;;;;;5075211;28;20083;-67
2022/07/07 07:40:50;;;;;;;2.45;0.73;;;16.90;99.90;;;;;;5075787;28;20488;-67
2022/07/07 07:43:16;;;;;;;2.88;0.73;;;16.90;99.90;;;;;;5075501;28;20095;-67
2022/07/07 07:45:42;;;;;;;2.15;0.70;;;16.80;99.90;;;;;;5075384;28;20109;-67
2022/07/07 07:48:08;;;;;;;2.08;0.70;;;16.60;99.90;;;;;;5075778;28;20033;-67
2022/07/07 07:50:34;;;;;;;3.72;1.15;;;16.60;99.90;;;;;;5074882;28;20094;-69
2022/07/07 07:53:04;;;;;;;1.25;0.60;;;16.40;99.90;;;;;;5073913;28;20473;-67
2022/07/07 07:55:31;;;;;;;4.35;0.70;;;16.30;99.90;;;;;;5074384;28;20095;-69
2022/07/07 07:57:57;;;;;;;2.13;0.65;;;16.10;99.90;;;;;;5074866;28;20052;-68
2022/07/07 08:00:23;;;;;;;2.22;0.63;;;15.90;99.90;;;;;;5075254;28;20049;-67
2022/07/07 08:02:49;;;;;;;1.80;0.63;;;15.90;99.90;;;;;;5075710;28;20049;-67
2022/07/07 08:05:17;;;;;;;1.92;0.60;;;16.10;99.90;;;;;;5074765;28;20089;-66
2022/07/07 08:07:44;;;;;;;2.75;0.70;;;16.30;99.90;;;;;;5074960;28;20113;-66
2022/07/07 08:10:11;;;;;;;2.08;0.60;;;16.60;99.90;;;;;;5075541;28;20081;-68
2022/07/07 08:12:37;;;;;;;2.60;0.93;;;16.80;99.90;;;;;;5075281;28;20056;-67
2022/07/07 08:15:04;;;;;;;3.05;0.60;;;16.90;99.90;;;;;;5074769;28;20416;-66
2022/07/07 08:17:30;;;;;;;1.58;0.70;;;16.90;99.90;;;;;;5073867;28;20052;-66
2022/07/07 08:19:56;;;;;;;2.20;0.88;;;16.90;99.90;;;;;;5074958;28;20421;-66
2022/07/07 08:22:21;;;;;;;1.00;0.45;;;16.90;99.90;;;;;;5073746;28;20040;-67
2022/07/07 08:24:47;;;;;;;2.40;0.50;;;17.00;99.90;;;;;;5074696;28;20492;-67
2022/07/07 08:27:13;;;;;;;2.03;0.60;;;16.90;99.90;;;;;;5074495;28;20044;-68
2022/07/07 08:29:39;;;;;;;1.70;0.55;;;17.00;99.90;;;;;;5075315;28;20481;-66
2022/07/07 08:32:14;;;;;;;3.08;0.90;;;17.10;99.90;;;;;;5074103;28;20055;-66
2022/07/07 08:34:41;;;;;;;2.08;0.60;;;17.30;99.90;;;;;;5073649;28;20106;-66
2022/07/07 08:37:06;;;;;;;1.67;0.50;;;17.20;99.90;;;;;;5074267;28;20045;-67
2022/07/07 08:39:33;;;;;;;2.17;0.60;;;17.10;99.90;;;;;;5074203;28;20087;-66
2022/07/07 08:41:59;;;;;;;2.05;0.50;;;17.00;99.90;;;;;;5074308;28;20090;-67
2022/07/07 08:44:25;;;;;;;1.63;0.57;;;16.90;99.90;;;;;;5072130;28;20524;-66
2022/07/07 08:46:51;;;;;;;1.35;0.57;;;16.80;99.90;;;;;;5074533;28;20045;-68
2022/07/07 08:49:17;;;;;;;3.05;0.60;;;16.70;99.90;;;;;;5073997;28;20059;-67
2022/07/07 08:51:44;;;;;;;2.00;0.73;;;16.70;99.90;;;;;;5056161;28;20520;-67
2022/07/07 08:54:11;;;;;;;0.98;0.47;;;16.70;99.90;;;;;;5074500;28;20059;-68
2022/07/07 08:56:40;;;;;;;1.02;0.40;;;16.70;99.90;;;;;;5074762;28;20060;-68
2022/07/07 08:59:08;;;;;;;2.45;0.50;;;16.90;99.90;;;;;;5074000;28;20041;-69
2022/07/07 09:01:34;;;;;;;1.55;0.60;;;17.00;99.90;;;;;;5073907;28;20473;-67
2022/07/07 09:04:01;;;;;;;1.65;0.60;;;17.30;99.90;;;;;;5073822;28;20079;-67
2022/07/07 09:06:27;;;;;;;2.08;0.60;;;17.50;99.90;;;;;;5073713;28;20056;-67
2022/07/07 09:08:54;;;;;;;2.55;0.70;;;17.70;99.90;;;;;;5072410;28;20123;-68
2022/07/07 09:11:31;;;;;;;2.85;0.80;;;17.80;99.90;;;;;;5074566;28;20110;-67
2022/07/07 09:14:11;;;;;;;1.90;0.80;;;17.90;99.90;;;;;;5072585;28;20101;-67
2022/07/07 09:16:37;;;;;;;2.10;0.70;;;18.00;99.90;;;;;;5072862;28;20447;-68
2022/07/07 09:19:06;;;;;;;2.85;0.75;;;18.00;99.90;;;;;;5073533;28;20067;-68
2022/07/07 09:21:33;;;;;;;1.77;0.55;;;18.00;99.90;;;;;;5073404;28;20084;-68
2022/07/07 09:24:01;;;;;;;1.65;0.60;;;17.80;99.90;;;;;;5072682;28;20044;-67
2022/07/07 09:26:46;;;;;;;2.30;0.90;;;17.60;99.90;;;;;;5073616;28;20159;-67
2022/07/07 09:29:14;;;;;;;4.03;1.20;;;17.40;99.90;;;;;;5073396;28;20084;-66
2022/07/07 09:32:05;;;;;;;3.28;0.88;;;17.40;99.90;;;;;;5073281;28;20048;-66
2022/07/07 09:34:37;;;;;;;2.72;0.80;;;17.40;99.90;;;;;;5073715;28;20363;-67
2022/07/07 09:39:55;;;;;;;5.25;1.05;;;17.40;99.90;;;;;;5074110;28;20058;-67
2022/07/07 09:42:25;;;;;;;5.18;0.80;;;17.50;99.90;;;;;;5073769;28;20045;-67
2022/07/07 09:45:06;;;;;;;2.67;0.82;;;17.50;99.90;;;;;;5073126;28;20040;-68
2022/07/07 09:47:35;;;;;;;3.33;1.10;;;17.70;99.90;;;;;;5072977;28;20443;-67
2022/07/07 09:50:06;;;;;;;1.83;0.75;;;17.80;99.90;;;;;;5073116;28;20064;-66
2022/07/07 09:52:35;;;;;;;3.40;0.63;;;18.00;99.90;;;;;;5073261;28;20044;-66
2022/07/07 09:55:03;;;;;;;2.97;1.00;;;18.20;99.90;;;;;;5072719;28;20098;-68
2022/07/07 09:57:29;;;;;;;3.63;1.00;;;18.20;99.90;;;;;;5072769;28;20048;-70
2022/07/07 09:59:55;;;;;;;5.07;1.45;;;18.10;99.90;;;;;;5073139;28;20075;-67
2022/07/07 10:02:26;;;;;;;2.13;0.93;;;18.00;99.90;;;;;;5072496;28;20079;-68
2022/07/07 10:04:54;;;;;;;3.20;0.90;;;18.00;99.90;;;;;;5073060;28;20052;-67
2022/07/07 10:07:25;;;;;;;3.05;1.05;;;17.80;99.90;;;;;;5072880;28;20041;-69
2022/07/07 10:10:00;;;;;;;2.03;0.68;;;17.70;99.90;;;;;;5073012;28;20086;-67
2022/07/07 10:12:28;;;;;;;3.55;0.65;;;17.50;99.90;;;;;;5073546;28;20201;-66
2022/07/07 10:14:59;;;;;;;1.58;0.60;;;17.40;99.90;;;;;;5073807;28;20052;-67
2022/07/07 10:17:26;;;;;;;3.78;0.90;;;17.50;99.90;;;;;;5073089;28;20062;-68
2022/07/07 10:19:52;;;;;;;1.65;0.68;;;17.60;99.90;;;;;;5072995;28;20498;-67
2022/07/07 10:22:21;;;;;;;3.28;0.82;;;17.80;99.90;;;;;;5072577;28;20047;-67
2022/07/07 10:24:47;;;;;;;2.00;0.88;;;18.00;99.90;;;;;;5071954;28;20401;-66
2022/07/07 10:27:15;;;;;;;1.77;0.60;;;18.10;99.90;;;;;;5072216;28;20048;-67
2022/07/07 10:29:50;;;;;;;2.13;0.73;;;18.30;99.90;;;;;;5072976;28;20067;-67
2022/07/07 10:32:50;;;;;;;1.55;0.70;;;18.30;99.90;;;;;;5072802;28;20045;-66
2022/07/07 10:35:16;;;;;;;2.45;0.85;;;18.40;99.90;;;;;;5072515;28;20079;-67
2022/07/07 10:37:44;;;;;;;1.75;0.90;;;18.50;99.90;;;;;;5073256;28;20389;-68
2022/07/07 10:40:23;;;;;;;2.15;0.98;;;18.40;99.90;;;;;;5073560;28;20044;-68
2022/07/07 10:43:27;;;;;;;2.60;1.20;;;18.00;99.90;;;;;;5073298;28;20084;-66
2022/07/07 10:45:54;;;;;;;2.92;0.80;;;17.60;99.90;;;;;;5073052;28;20066;-66
2022/07/07 10:48:38;;;;;;;3.90;0.95;;;17.30;99.90;;;;;;5073382;28;20036;-68
2022/07/07 10:51:17;;;;;;;3.97;1.63;;;17.20;99.90;;;;;;5072641;28;20041;-66
2022/07/07 10:54:01;;;;;;;3.42;1.00;;;17.20;99.90;;;;;;5072481;28;20122;-67
2022/07/07 10:56:26;;;;;;;3.70;1.00;;;17.20;99.90;;;;;;5072660;28;20067;-67
2022/07/07 10:58:59;;;;;;;2.55;0.80;;;17.20;99.90;;;;;;5072610;28;20037;-67
2022/07/07 11:01:27;;;;;;;3.00;1.17;;;17.20;99.90;;;;;;5072565;28;20056;-66
2022/07/07 11:03:53;;;;;;;2.03;0.95;;;17.20;99.90;;;;;;5071630;28;20044;-66
2022/07/07 11:06:19;;;;;;;3.13;0.90;;;17.10;99.90;;;;;;5072858;28;20048;-66
2022/07/07 11:08:55;;;;;;;2.67;0.98;;;17.10;99.90;;;;;;5076101;28;20040;-67
2022/07/07 11:11:21;;;;;;;2.80;0.90;;;17.10;99.90;;;;;;5076521;28;20040;-66
2022/07/07 11:13:47;;;;;;;2.63;0.85;;;17.00;99.90;;;;;;5076016;28;20101;-66
2022/07/07 11:16:23;;;;;;;4.03;1.15;;;16.90;99.90;;;;;;5076010;28;20119;-66
2022/07/07 11:18:57;;;;;;;2.85;0.93;;;16.90;99.90;;;;;;5076300;28;20041;-67
2022/07/07 11:21:43;;;;;;;4.78;0.98;;;16.80;99.90;;;;;;5075899;28;20067;-67
2022/07/07 11:24:20;;;;;;;4.95;1.40;;;16.80;99.90;;;;;;5076270;28;20166;-68
2022/07/07 11:26:56;;;;;;;3.72;1.00;;;16.70;99.90;;;;;;5075800;28;20052;-68
2022/07/07 11:29:22;;;;;;;3.10;1.23;;;16.70;99.90;;;;;;5075272;28;20079;-67
2022/07/07 11:31:48;;;;;;;4.82;1.20;;;16.60;99.90;;;;;;5076183;28;20053;-66
2022/07/07 11:34:13;;;;;;;3.85;1.38;;;16.60;99.90;;;;;;5075622;28;20052;-65
2022/07/07 11:36:39;;;;;;;4.88;1.40;;;16.50;99.90;;;;;;5075321;28;20049;-69
2022/07/07 11:39:06;;;;;;;7.75;1.98;;;16.50;99.90;;;;;;5076069;28;20045;-67
2022/07/07 11:41:39;;;;;;;9.18;2.03;;;16.50;99.90;;;;;;5075562;28;20071;-67
2022/07/07 11:44:06;;;;;;;4.55;1.17;;;16.50;99.90;;;;;;5076174;28;20053;-66
2022/07/07 11:46:31;;;;;;;4.82;1.80;;;16.50;99.90;;;;;;5075520;28;20041;-66
2022/07/07 11:48:57;;;;;;;5.75;1.58;;;16.60;99.90;;;;;;5075863;28;20044;-66
2022/07/07 11:51:30;;;;;;;7.60;1.58;;;16.70;99.90;;;;;;5075337;28;20051;-66
2022/07/07 11:54:00;;;;;;;8.18;1.90;;;16.70;99.90;;;;;;5075401;28;20045;-67
2022/07/07 11:56:33;;;;;;;4.80;1.50;;;16.80;99.90;;;;;;5074823;28;20070;-66
2022/07/07 11:59:00;;;;;;;4.78;1.33;;;16.90;99.90;;;;;;5075504;28;20063;-66
2022/07/07 12:01:34;;;;;;;8.45;1.50;;;17.00;99.90;;;;;;5075162;28;20118;-66
2022/07/07 12:04:23;;;;;;;10.50;1.60;;;17.10;99.90;;;;;;5075059;28;20059;-66
2022/07/07 12:06:53;;;;;;;8.40;1.70;;;17.20;99.90;;;;;;5074931;28;20053;-66
2022/07/07 12:09:19;;;;;;;4.43;1.48;;;17.10;99.90;;;;;;5074778;28;20376;-67
2022/07/07 12:11:45;;;;;;;6.65;1.50;;;17.00;99.90;;;;;;5074984;28;20052;-66
2022/07/07 12:14:12;;;;;;;5.95;1.45;;;16.90;99.90;;;;;;5075358;28;20045;-66
2022/07/07 12:17:04;;;;;;;4.57;1.33;;;17.00;99.90;;;;;;5074638;28;20400;-66
2022/07/07 12:19:30;;;;;;;6.72;1.60;;;17.10;99.90;;;;;;5071651;28;20088;-66
2022/07/07 12:21:56;;;;;;;3.88;1.02;;;17.20;99.90;;;;;;5074762;28;20091;-67
2022/07/07 12:24:22;;;;;;;6.28;1.42;;;17.30;99.90;;;;;;5075331;28;20101;-66
2022/07/07 12:26:51;;;;;;;6.28;2.00;;;17.40;99.90;;;;;;5074499;28;20080;-67
2022/07/07 12:29:18;;;;;;;4.95;1.30;;;17.50;99.90;;;;;;5073497;28;20055;-67
2022/07/07 12:31:44;;;;;;;3.50;1.40;;;17.50;99.90;;;;;;5073913;28;20516;-68
2022/07/07 12:34:20;;;;;;;6.38;1.90;;;17.70;99.90;;;;;;5074969;28;20049;-67
2022/07/07 12:36:48;;;;;;;5.95;1.52;;;17.70;99.90;;;;;;5074896;28;20052;-67
2022/07/07 12:39:14;;;;;;;2.90;1.00;;;17.70;99.90;;;;;;5074815;28;20384;-67
2022/07/07 12:41:41;;;;;;;3.25;1.35;;;17.80;99.90;;;;;;5074376;28;20370;-66
2022/07/07 12:44:22;;;;;;;5.53;1.08;;;17.80;99.90;;;;;;5074251;28;20044;-67
2022/07/07 12:46:48;;;;;;;2.92;0.93;;;17.80;99.90;;;;;;5074638;28;20059;-68
2022/07/07 12:49:14;;;;;;;5.75;1.40;;;17.80;99.90;;;;;;5074874;28;20119;-67